createdAt,value
2023-02-22T00:01:35.622Z,96358.81
2023-02-22T00:04:05.468Z,96356.78
2023-02-22T00:06:33.898Z,96352.06
2023-02-22T00:09:03.888Z,96336.34
2023-02-22T00:11:35.524Z,96339.38
2023-02-22T00:14:08.049Z,96335.84
2023-02-22T00:16:39.593Z,96342.22
2023-02-22T00:19:07.721Z,96344.72
2023-02-22T00:21:38.505Z,96354.09
2023-02-22T00:24:23.391Z,96357.00
2023-02-22T00:26:55.997Z,96354.84
2023-02-22T00:29:24.479Z,96351.41
2023-02-22T00:31:52.425Z,96339.75
2023-02-22T00:34:20.252Z,96341.38
2023-02-22T00:37:03.099Z,96337.13
2023-02-22T00:39:33.759Z,96335.28
2023-02-22T00:42:06.194Z,96327.44
2023-02-22T00:44:35.432Z,96341.84
2023-02-22T00:47:04.804Z,96322.84
2023-02-22T00:49:35.264Z,96289.84
2023-02-22T00:52:03.162Z,96326.75
2023-02-22T00:54:30.944Z,96324.16
2023-02-22T00:56:59.196Z,96333.94
2023-02-22T00:59:31.205Z,96319.25
2023-02-22T01:02:04.885Z,96306.75
2023-02-22T01:04:32.802Z,96335.41
2023-02-22T01:07:07.284Z,96327.25
2023-02-22T01:09:36.011Z,96329.84
2023-02-22T01:12:08.753Z,96323.28
2023-02-22T01:14:40.162Z,96316.91
2023-02-22T01:17:12.141Z,96312.53
2023-02-22T01:19:45.141Z,96285.63
2023-02-22T01:22:13.011Z,96306.28
2023-02-22T01:24:41.945Z,96302.88
2023-02-22T01:27:12.211Z,96241.22
2023-02-22T01:29:43.796Z,96297.75
2023-02-22T01:32:15.034Z,96301.44
2023-02-22T01:34:42.834Z,96302.25
2023-02-22T01:37:15.953Z,96298.06
2023-02-22T01:39:44.095Z,96293.09
2023-02-22T01:42:13.510Z,96286.84
2023-02-22T01:44:45.510Z,96252.13
2023-02-22T01:47:13.328Z,96161.94
2023-02-22T01:49:48.688Z,96286.16
2023-02-22T01:52:30.529Z,96274.94
2023-02-22T01:55:00.011Z,96275.97
2023-02-22T01:57:32.255Z,96266.19
2023-02-22T02:00:09.905Z,96263.00
2023-02-22T02:02:40.538Z,96258.34
2023-02-22T02:05:10.102Z,96185.31
2023-02-22T02:07:39.462Z,96259.31
2023-02-22T02:10:14.382Z,96258.44
2023-02-22T02:12:46.150Z,96251.97
2023-02-22T02:15:24.755Z,96248.81
2023-02-22T02:17:58.359Z,96205.34
2023-02-22T02:20:29.919Z,96249.28
2023-02-22T02:23:01.705Z,96202.66
2023-02-22T02:26:04.013Z,96226.00
2023-02-22T02:28:49.273Z,96223.16
2023-02-22T02:31:43.751Z,96237.19
2023-02-22T02:34:25.761Z,96232.19
2023-02-22T02:39:54.301Z,96232.19
2023-02-22T02:42:25.549Z,96234.81
2023-02-22T02:44:57.083Z,96211.09
2023-02-22T02:47:29.282Z,96231.19
2023-02-22T02:50:02.635Z,96204.59
2023-02-22T02:52:35.917Z,96217.56
2023-02-22T02:55:05.046Z,96214.69
2023-02-22T02:57:33.186Z,96217.34
2023-02-22T03:00:01.575Z,96215.66
2023-02-22T03:02:41.682Z,96213.78
2023-02-22T03:05:36.660Z,96211.22
2023-02-22T03:08:08.098Z,96214.19
2023-02-22T03:10:46.471Z,96212.47
2023-02-22T03:13:17.284Z,96177.72
2023-02-22T03:16:06.052Z,96193.25
2023-02-22T03:18:39.150Z,96197.13
2023-02-22T03:21:18.700Z,96183.81
2023-02-22T03:23:49.455Z,96195.09
2023-02-22T03:26:24.077Z,96190.88
2023-02-22T03:28:56.062Z,96191.84
2023-02-22T03:31:37.278Z,96190.28
2023-02-22T03:34:08.720Z,96158.84
2023-02-22T03:36:47.766Z,96183.94
2023-02-22T03:39:20.395Z,96182.84
2023-02-22T03:41:52.962Z,96174.72
2023-02-22T03:44:25.977Z,96175.28
2023-02-22T03:46:56.875Z,96172.81
2023-02-22T03:49:29.879Z,96178.63
2023-02-22T03:52:01.107Z,96184.34
2023-02-22T03:54:29.237Z,96167.56
2023-02-22T03:56:58.505Z,96176.28
2023-02-22T03:59:29.549Z,96112.72
2023-02-22T04:01:58.234Z,96130.78
2023-02-22T04:04:27.775Z,96166.03
2023-02-22T04:06:55.731Z,96167.09
2023-02-22T04:09:25.019Z,96168.19
2023-02-22T04:11:55.455Z,96167.59
2023-02-22T04:14:25.017Z,96163.84
2023-02-22T04:16:55.571Z,96162.94
2023-02-22T04:19:23.396Z,96156.91
2023-02-22T04:21:51.333Z,96164.19
2023-02-22T04:24:19.458Z,96164.00
2023-02-22T04:26:50.338Z,96160.88
2023-02-22T04:29:25.245Z,96164.41
2023-02-22T04:31:53.816Z,96159.00
2023-02-22T04:34:21.638Z,96164.72
2023-02-22T04:36:54.758Z,96159.66
2023-02-22T04:39:26.642Z,96150.00
2023-02-22T04:41:56.625Z,96159.16
2023-02-22T04:44:24.449Z,96157.03
2023-02-22T04:46:53.046Z,96154.28
2023-02-22T04:49:22.009Z,96154.19
2023-02-22T04:51:49.821Z,96155.47
2023-02-22T04:54:24.488Z,96141.56
2023-02-22T04:56:58.019Z,96150.66
2023-02-22T04:59:25.952Z,96115.06
2023-02-22T05:01:53.937Z,96143.66
2023-02-22T05:04:23.704Z,96145.41
2023-02-22T05:06:53.451Z,96125.31
2023-02-22T05:09:37.193Z,96146.78
2023-02-22T05:12:07.542Z,96144.41
2023-02-22T05:14:35.519Z,96092.69
2023-02-22T05:17:07.584Z,96048.59
2023-02-22T05:19:37.754Z,96121.00
2023-02-22T05:22:08.575Z,96146.53
2023-02-22T05:24:36.513Z,96133.47
2023-02-22T05:27:04.405Z,96137.47
2023-02-22T05:29:41.320Z,96127.53
2023-02-22T05:32:12.329Z,96120.25
2023-02-22T05:34:40.379Z,96128.59
2023-02-22T05:37:09.126Z,96130.59
2023-02-22T05:39:37.350Z,96130.53
2023-02-22T05:42:12.244Z,96131.56
2023-02-22T05:44:42.858Z,96118.94
2023-02-22T05:47:10.676Z,96127.59
2023-02-22T05:49:40.187Z,96135.28
2023-02-22T05:52:08.436Z,96135.69
2023-02-22T05:54:36.781Z,96125.78
2023-02-22T05:57:07.992Z,96131.50
2023-02-22T05:59:41.692Z,96121.91
2023-02-22T06:02:12.149Z,96124.47
2023-02-22T06:04:47.645Z,96127.38
2023-02-22T06:07:17.592Z,96081.09
2023-02-22T06:09:45.822Z,96126.69
2023-02-22T06:12:14.697Z,96112.22
2023-02-22T06:14:45.971Z,96119.28
2023-02-22T06:17:18.885Z,96124.94
2023-02-22T06:19:47.536Z,96119.25
2023-02-22T06:22:19.100Z,96115.91
2023-02-22T06:24:56.474Z,96123.88
2023-02-22T06:27:28.320Z,96129.38
2023-02-22T06:29:56.338Z,96128.22
2023-02-22T06:32:26.342Z,96131.03
2023-02-22T06:34:57.642Z,96131.63
2023-02-22T06:37:30.373Z,96133.34
2023-02-22T06:40:04.916Z,96136.81
2023-02-22T06:42:33.260Z,96128.47
2023-02-22T06:45:01.133Z,96144.75
2023-02-22T06:47:30.764Z,96141.59
2023-02-22T06:50:00.820Z,96141.72
2023-02-22T06:52:33.613Z,96130.22
2023-02-22T06:55:04.139Z,96169.56
2023-02-22T06:57:32.443Z,96146.44
2023-02-22T07:00:11.106Z,96133.72
2023-02-22T07:02:40.867Z,96149.81
2023-02-22T07:05:17.172Z,96154.53
2023-02-22T07:07:45.383Z,96156.56
2023-02-22T07:10:22.773Z,96128.66
2023-02-22T07:12:56.686Z,96156.44
2023-02-22T07:15:27.913Z,96119.53
2023-02-22T07:17:59.485Z,96121.19
2023-02-22T07:20:31.442Z,96164.09
2023-02-22T07:22:59.825Z,96175.09
2023-02-22T07:25:27.901Z,96167.25
2023-02-22T07:27:56.187Z,96179.59
2023-02-22T07:30:30.734Z,96187.56
2023-02-22T07:33:02.939Z,96180.56
2023-02-22T07:35:32.577Z,96166.75
2023-02-22T07:38:01.053Z,96159.13
2023-02-22T07:40:32.264Z,96171.00
2023-02-22T07:43:14.042Z,96143.44
2023-02-22T07:45:42.715Z,96174.94
2023-02-22T07:48:16.271Z,96156.47
2023-02-22T07:50:47.595Z,96164.13
2023-02-22T07:53:18.164Z,96162.38
2023-02-22T07:55:46.379Z,96157.03
2023-02-22T07:58:16.866Z,96161.94
2023-02-22T08:00:45.597Z,96166.56
2023-02-22T08:03:16.101Z,96157.81
2023-02-22T08:05:47.051Z,96166.31
2023-02-22T08:08:19.867Z,96127.19
2023-02-22T08:10:52.101Z,96161.28
2023-02-22T08:13:22.345Z,96149.13
2023-02-22T08:15:53.798Z,96143.00
2023-02-22T08:18:27.721Z,96125.44
2023-02-22T08:21:03.803Z,96150.16
2023-02-22T08:23:34.312Z,96152.22
2023-02-22T08:26:09.112Z,96147.31
2023-02-22T08:28:41.372Z,96146.75
2023-02-22T08:31:09.346Z,96150.78
2023-02-22T08:33:38.646Z,96154.94
2023-02-22T08:36:07.133Z,96153.94
2023-02-22T08:38:35.234Z,96140.50
2023-02-22T08:41:05.583Z,96119.41
2023-02-22T08:43:34.283Z,96150.16
2023-02-22T08:46:02.440Z,96145.94
2023-02-22T08:48:30.929Z,96150.59
2023-02-22T08:51:02.445Z,96117.38
2023-02-22T08:53:36.069Z,96154.06
2023-02-22T08:56:06.918Z,96152.06
2023-02-22T08:58:38.490Z,96153.44
2023-02-22T09:01:07.173Z,96149.34
2023-02-22T09:03:35.392Z,96134.66
2023-02-22T09:06:09.229Z,96137.16
2023-02-22T09:08:39.200Z,96147.66
2023-02-22T09:11:07.899Z,96144.59
2023-02-22T09:13:36.669Z,96134.19
2023-02-22T09:16:06.371Z,96139.66
2023-02-22T09:18:43.768Z,96096.19
2023-02-22T09:21:15.560Z,96143.28
2023-02-22T09:23:45.090Z,96125.94
2023-02-22T09:26:17.344Z,96137.59
2023-02-22T09:28:45.477Z,96133.66
2023-02-22T09:31:13.721Z,96131.25
2023-02-22T09:33:47.583Z,96128.34
2023-02-22T09:36:20.687Z,96135.47
2023-02-22T09:38:51.516Z,96124.22
2023-02-22T09:41:22.995Z,96092.00
2023-02-22T09:43:55.219Z,96121.94
2023-02-22T09:46:31.887Z,96049.09
2023-02-22T09:49:06.810Z,96112.34
2023-02-22T09:51:43.959Z,96111.50
2023-02-22T09:54:18.117Z,96109.66
2023-02-22T09:56:49.286Z,96103.75
2023-02-22T09:59:21.969Z,96109.22
2023-02-22T10:01:53.975Z,96109.38
2023-02-22T10:04:26.319Z,96093.19
2023-02-22T10:07:08.767Z,96106.91
2023-02-22T10:09:42.949Z,96110.47
2023-02-22T10:12:16.943Z,95885.97
2023-02-22T10:15:06.257Z,96120.09
2023-02-22T10:17:42.600Z,96095.84
2023-02-22T10:20:21.892Z,96106.59
2023-02-22T10:23:02.649Z,96109.63
2023-02-22T10:25:35.083Z,96110.63
2023-02-22T10:28:11.822Z,96082.50
2023-02-22T10:30:45.249Z,96082.22
2023-02-22T10:33:16.160Z,96059.69
2023-02-22T10:35:47.171Z,96111.91
2023-02-22T10:38:20.408Z,96108.53
2023-02-22T10:40:57.349Z,96103.06
2023-02-22T10:43:26.992Z,96107.81
2023-02-22T10:45:58.739Z,96103.81
2023-02-22T10:48:37.818Z,96105.91
2023-02-22T10:51:10.278Z,96100.38
2023-02-22T10:53:42.677Z,95862.06
2023-02-22T10:56:14.728Z,96082.53
2023-02-22T10:58:48.867Z,96083.28
2023-02-22T11:01:27.639Z,96080.06
2023-02-22T11:04:00.470Z,96082.44
2023-02-22T11:06:29.096Z,96065.19
2023-02-22T11:09:11.128Z,96079.34
2023-02-22T11:11:43.308Z,96085.59
2023-02-22T11:14:16.338Z,96085.97
2023-02-22T11:16:59.225Z,96083.88
2023-02-22T11:19:31.659Z,96070.66
2023-02-22T11:22:12.143Z,96046.44
2023-02-22T11:27:33.380Z,96071.31
2023-02-22T11:30:23.038Z,96037.09
2023-02-22T11:32:57.498Z,96055.22
2023-02-22T11:35:38.660Z,95831.28
2023-02-22T11:38:23.600Z,96021.13
2023-02-22T11:41:17.080Z,96052.94
2023-02-22T11:43:46.911Z,96059.81
2023-02-22T11:46:19.191Z,96051.59
2023-02-22T11:48:58.538Z,96032.91
2023-02-22T11:51:38.776Z,96052.56
2023-02-22T11:54:32.875Z,95713.41
2023-02-22T11:57:15.711Z,96044.00
2023-02-22T11:59:52.178Z,96040.72
2023-02-22T12:02:37.397Z,96035.19
2023-02-22T12:05:26.664Z,95985.97
2023-02-22T12:08:18.923Z,96035.00
2023-02-22T12:10:57.285Z,96036.19
2023-02-22T12:13:39.593Z,96031.97
2023-02-22T12:16:17.696Z,96026.38
2023-02-22T12:19:05.452Z,96012.97
2023-02-22T12:21:37.387Z,96033.69
2023-02-22T12:24:14.477Z,96044.06
2023-02-22T12:26:44.812Z,96033.03
2023-02-22T12:29:21.960Z,96031.75
2023-02-22T12:31:54.701Z,96024.06
2023-02-22T12:34:30.834Z,96027.59
2023-02-22T12:37:05.542Z,96033.28
2023-02-22T12:39:52.685Z,96025.69
2023-02-22T12:42:26.134Z,96022.50
2023-02-22T12:44:59.979Z,96017.22
2023-02-22T12:47:33.742Z,95989.13
2023-02-22T12:50:06.730Z,96020.50
2023-02-22T12:52:48.861Z,96022.56
2023-02-22T12:55:25.021Z,96027.56
2023-02-22T12:57:58.668Z,95994.41
2023-02-22T13:00:43.306Z,96016.84
2023-02-22T13:03:26.869Z,96028.56
2023-02-22T13:06:02.393Z,96023.91
2023-02-22T13:08:33.367Z,95956.28
2023-02-22T13:11:09.147Z,96023.09
2023-02-22T13:13:41.248Z,96015.06
2023-02-22T13:16:26.673Z,96001.34
2023-02-22T13:19:01.685Z,96015.63
2023-02-22T13:21:33.932Z,96021.53
2023-02-22T13:24:15.959Z,96016.09
2023-02-22T13:26:53.394Z,96013.38
2023-02-22T13:29:28.493Z,96005.63
2023-02-22T13:32:12.418Z,96006.88
2023-02-22T13:34:51.539Z,96013.50
2023-02-22T13:37:46.965Z,96000.28
2023-02-22T13:40:42.839Z,96006.31
2023-02-22T13:43:48.576Z,96003.66
2023-02-22T13:46:50.442Z,96003.31
2023-02-22T13:49:31.882Z,96009.44
2023-02-22T13:52:02.558Z,96010.75
2023-02-22T13:54:39.639Z,96009.19
2023-02-22T13:57:26.264Z,96006.59
2023-02-22T14:00:26.090Z,95995.41
2023-02-22T14:03:09.026Z,96006.28
2023-02-22T14:05:53.017Z,95997.03
2023-02-22T14:08:46.844Z,95830.44
2023-02-22T14:12:09.139Z,96008.69
2023-02-22T14:15:30.868Z,96004.84
2023-02-22T14:18:03.010Z,95988.00
2023-02-22T14:20:35.273Z,96004.44
2023-02-22T14:23:36.214Z,95997.06
2023-02-22T14:26:18.716Z,95989.19
2023-02-22T14:28:54.347Z,96006.94
2023-02-22T14:31:36.640Z,95978.91
2023-02-22T14:34:11.922Z,96000.69
2023-02-22T14:36:47.441Z,95986.13
2023-02-22T14:39:25.197Z,95882.84
2023-02-22T14:42:06.004Z,95972.50
2023-02-22T14:44:38.265Z,95997.28
2023-02-22T14:47:17.958Z,95992.84
2023-02-22T14:49:52.956Z,95996.25
2023-02-22T14:52:26.003Z,95962.72
2023-02-22T14:55:13.792Z,95998.75
2023-02-22T14:57:55.200Z,96026.78
2023-02-22T15:00:31.144Z,95976.84
2023-02-22T15:03:01.757Z,95996.94
2023-02-22T15:05:40.011Z,95995.97
2023-02-22T15:08:09.703Z,95988.66
2023-02-22T15:10:44.110Z,95990.41
2023-02-22T15:13:19.818Z,95967.19
2023-02-22T15:15:50.838Z,95995.97
2023-02-22T15:18:26.577Z,95977.78
2023-02-22T15:20:58.584Z,95989.53
2023-02-22T15:23:30.422Z,95995.25
2023-02-22T15:25:59.143Z,95987.47
2023-02-22T15:28:36.688Z,95950.72
2023-02-22T15:31:19.521Z,95993.91
2023-02-22T15:33:54.072Z,95995.78
2023-02-22T15:36:24.105Z,95999.53
2023-02-22T15:38:59.347Z,95995.91
2023-02-22T15:41:33.816Z,96002.16
2023-02-22T15:44:17.672Z,96008.94
2023-02-22T15:46:50.489Z,95991.66
2023-02-22T15:49:24.442Z,95996.69
2023-02-22T15:52:06.682Z,95997.75
2023-02-22T15:54:43.419Z,95961.63
2023-02-22T15:57:15.606Z,96003.41
2023-02-22T16:00:04.197Z,95954.19
2023-02-22T16:02:38.764Z,96002.59
2023-02-22T16:05:09.914Z,96010.19
2023-02-22T16:07:42.043Z,96006.03
2023-02-22T16:10:23.822Z,95992.81
2023-02-22T16:13:05.055Z,96005.41
2023-02-22T16:15:38.089Z,95976.06
2023-02-22T16:18:19.029Z,96009.28
2023-02-22T16:20:59.318Z,96008.97
2023-02-22T16:23:29.812Z,95802.69
2023-02-22T16:26:22.379Z,96008.44
2023-02-22T16:28:55.218Z,96006.81
2023-02-22T16:31:25.814Z,96010.50
2023-02-22T16:33:56.420Z,96016.72
2023-02-22T16:36:38.710Z,96016.34
2023-02-22T16:39:09.677Z,96018.50
2023-02-22T16:41:38.893Z,96017.63
2023-02-22T16:44:07.843Z,96023.34
2023-02-22T16:46:37.907Z,95968.38
2023-02-22T16:49:06.538Z,96019.03
2023-02-22T16:51:41.183Z,96025.97
2023-02-22T16:54:15.294Z,96015.22
2023-02-22T16:56:43.168Z,96028.94
2023-02-22T16:59:15.823Z,96021.50
2023-02-22T17:01:43.967Z,96028.84
2023-02-22T17:04:18.291Z,96031.03
2023-02-22T17:06:52.546Z,96024.59
2023-02-22T17:09:21.173Z,96032.31
2023-02-22T17:11:53.258Z,96023.78
2023-02-22T17:14:23.322Z,96036.06
2023-02-22T17:16:53.007Z,96031.25
2023-02-22T17:19:23.139Z,96024.84
2023-02-22T17:21:52.708Z,96022.75
2023-02-22T17:24:22.924Z,96037.84
2023-02-22T17:27:08.742Z,96039.44
2023-02-22T17:29:36.932Z,95986.66
2023-02-22T17:32:06.040Z,96048.91
2023-02-22T17:34:36.126Z,96040.16
2023-02-22T17:37:06.427Z,96063.00
2023-02-22T17:39:34.215Z,96072.34
2023-02-22T17:42:02.290Z,96085.63
2023-02-22T17:44:35.318Z,96062.44
2023-02-22T17:47:03.170Z,96077.22
2023-02-22T17:49:32.986Z,96071.00
2023-02-22T17:52:05.625Z,96074.06
2023-02-22T17:54:40.006Z,96076.13
2023-02-22T17:57:08.955Z,96071.88
2023-02-22T17:59:36.696Z,95998.28
2023-02-22T18:02:06.584Z,96070.06
2023-02-22T18:04:36.107Z,96049.91
2023-02-22T18:07:06.131Z,96055.25
2023-02-22T18:09:34.108Z,96075.94
2023-02-22T18:12:03.660Z,96073.06
2023-02-22T18:14:31.508Z,96077.47
2023-02-22T18:17:01.208Z,95893.63
2023-02-22T18:19:29.240Z,96076.69
2023-02-22T18:22:03.075Z,96080.84
2023-02-22T18:24:35.106Z,96055.88
2023-02-22T18:27:08.316Z,96128.56
2023-02-22T18:29:36.116Z,96047.28
2023-02-22T18:32:04.067Z,96051.19
2023-02-22T18:34:35.904Z,96061.69
2023-02-22T18:37:05.624Z,96062.06
2023-02-22T18:39:40.616Z,96077.94
2023-02-22T18:42:14.280Z,96078.69
2023-02-22T18:44:45.502Z,96069.19
2023-02-22T18:47:16.144Z,96069.09
2023-02-22T18:49:43.918Z,96055.44
2023-02-22T18:52:14.882Z,96077.16
2023-02-22T18:54:48.745Z,96071.28
2023-02-22T18:57:18.540Z,96071.75
2023-02-22T18:59:46.507Z,96080.13
2023-02-22T19:02:15.151Z,96034.69
2023-02-22T19:04:45.455Z,96026.84
2023-02-22T19:07:17.793Z,96076.50
2023-02-22T19:09:54.707Z,96048.84
2023-02-22T19:12:27.095Z,96072.34
2023-02-22T19:14:58.171Z,96064.78
2023-02-22T19:17:26.309Z,96074.41
2023-02-22T19:20:05.967Z,96107.28
2023-02-22T19:22:34.787Z,96080.84
2023-02-22T19:25:04.251Z,95841.56
2023-02-22T19:27:44.436Z,96076.00
2023-02-22T19:32:48.235Z,96068.75
2023-02-22T19:35:26.143Z,96075.44
2023-02-22T19:37:56.907Z,96060.19
2023-02-22T19:40:27.029Z,96065.44
2023-02-22T19:42:57.763Z,96056.44
2023-02-22T19:45:26.119Z,96075.31
2023-02-22T19:47:55.520Z,96001.72
2023-02-22T19:50:26.871Z,96066.84
2023-02-22T19:52:56.084Z,96070.75
2023-02-22T19:55:24.316Z,96073.91
2023-02-22T19:57:55.164Z,96037.88
2023-02-22T20:00:25.693Z,96068.75
2023-02-22T20:03:06.018Z,96079.50
2023-02-22T20:05:37.394Z,96077.03
2023-02-22T20:08:13.422Z,96073.13
2023-02-22T20:10:43.986Z,96078.28
2023-02-22T20:13:12.423Z,96080.66
2023-02-22T20:15:41.905Z,96082.78
2023-02-22T20:18:12.689Z,96078.97
2023-02-22T20:20:41.905Z,96074.13
2023-02-22T20:23:11.816Z,96080.06
2023-02-22T20:25:40.608Z,95836.06
2023-02-22T20:28:13.242Z,96062.91
2023-02-22T20:30:45.293Z,96092.16
2023-02-22T20:33:14.172Z,96082.88
2023-02-22T20:35:50.972Z,96081.16
2023-02-22T20:38:21.585Z,96071.38
2023-02-22T20:40:49.400Z,96062.34
2023-02-22T20:43:19.245Z,96095.75
2023-02-22T20:45:48.417Z,96095.00
2023-02-22T20:48:16.292Z,96093.81
2023-02-22T20:50:46.642Z,96088.28
2023-02-22T20:53:14.443Z,96094.88
2023-02-22T20:55:49.488Z,96085.03
2023-02-22T20:58:19.915Z,96073.59
2023-02-22T21:00:51.884Z,96095.56
2023-02-22T21:03:20.803Z,96084.56
2023-02-22T21:05:49.233Z,95977.94
2023-02-22T21:08:17.030Z,96069.91
2023-02-22T21:10:46.999Z,96088.63
2023-02-22T21:13:15.047Z,96088.41
2023-02-22T21:15:48.570Z,96088.63
2023-02-22T21:18:20.319Z,96093.16
2023-02-22T21:20:49.169Z,96095.78
2023-02-22T21:23:17.336Z,96062.22
2023-02-22T21:25:54.070Z,96105.03
2023-02-22T21:28:23.276Z,96105.75
2023-02-22T21:30:51.452Z,96101.91
2023-02-22T21:33:21.342Z,96102.88
2023-02-22T21:35:50.559Z,96098.47
2023-02-22T21:38:22.749Z,96105.09
2023-02-22T21:40:55.504Z,96101.91
2023-02-22T21:43:27.354Z,96096.19
2023-02-22T21:45:55.369Z,96103.78
2023-02-22T21:48:26.615Z,96098.38
2023-02-22T21:50:55.910Z,96099.09
2023-02-22T21:53:30.406Z,96105.53
2023-02-22T21:56:10.389Z,96103.91
2023-02-22T21:58:38.210Z,96098.91
2023-02-22T22:01:09.091Z,96099.22
2023-02-22T22:03:41.359Z,96096.44
2023-02-22T22:06:13.554Z,96095.78
2023-02-22T22:08:46.072Z,96068.59
2023-02-22T22:11:17.889Z,96093.38
2023-02-22T22:13:46.197Z,96061.94
2023-02-22T22:16:16.472Z,96087.88
2023-02-22T22:18:49.520Z,96077.81
2023-02-22T22:21:19.718Z,96088.06
2023-02-22T22:23:48.367Z,96032.50
2023-02-22T22:26:20.087Z,96064.97
2023-02-22T22:28:53.634Z,96078.38
2023-02-22T22:31:23.735Z,96082.38
2023-02-22T22:33:53.705Z,96054.94
2023-02-22T22:36:22.694Z,96080.25
2023-02-22T22:38:52.613Z,96068.75
2023-02-22T22:41:21.912Z,96085.97
2023-02-22T22:43:54.219Z,96081.75
2023-02-22T22:46:26.918Z,96088.34
2023-02-22T22:48:56.395Z,96090.41
2023-02-22T22:51:26.545Z,96088.34
2023-02-22T22:54:05.108Z,96088.66
2023-02-22T22:56:35.260Z,96089.22
2023-02-22T22:59:07.439Z,95990.91
2023-02-22T23:01:39.286Z,96079.06
2023-02-22T23:04:12.467Z,96080.38
2023-02-22T23:06:42.516Z,96082.97
2023-02-22T23:09:15.145Z,96078.44
2023-02-22T23:11:45.192Z,96092.81
2023-02-22T23:14:19.522Z,96009.03
2023-02-22T23:16:47.972Z,96096.34
2023-02-22T23:19:19.241Z,96089.03
2023-02-22T23:21:47.797Z,96084.38
2023-02-22T23:24:16.748Z,96085.97
2023-02-22T23:26:50.758Z,96061.44
2023-02-22T23:29:21.717Z,96086.75
2023-02-22T23:31:50.384Z,96032.94
2023-02-22T23:34:29.029Z,96086.16
2023-02-22T23:36:57.021Z,96082.97
2023-02-22T23:39:25.506Z,96081.03
2023-02-22T23:42:04.589Z,96065.16
2023-02-22T23:44:32.752Z,96066.31
2023-02-22T23:47:02.527Z,96079.94
2023-02-22T23:49:35.825Z,96088.28
2023-02-22T23:52:04.439Z,96081.97
2023-02-22T23:54:36.515Z,96088.94
2023-02-22T23:57:08.835Z,96089.22
2023-02-22T23:59:41.454Z,96081.88
